Iroquois Falls, Canada
Current Conditions -  °F | °C
As of 9:00 PM on Wednesday 22 Oct 2014 (Local Time) from CYTS Reporting Station
Clear Clear  
Wind Chill: 32°   Ceiling: Unl
Heat Index: 32°   Visibility: 15mi
Dew Point: 28°   Wind: 2mph
Humidity: 87%   Direction: 150°SSE
Pressure: 30.29"   Gusts: NA
Location:  48.77°N, 80.67°W
Report Text: CYTS 230100Z 15002KT 15SM SKC M00/M02 A3029 RMK SLP275
Loading
Personal Weather Stations






























Interactive Weather Map
Tropical Storm Tracking
New forecast layout! Learn more

10-Day Weather Forecast

Advertisements
Track Severe Weather on mobile